createdAt,value
2022-07-28T00:01:21.625Z,100687.20
2022-07-28T00:04:12.095Z,100687.84
2022-07-28T00:07:02.578Z,100687.17
2022-07-28T00:09:59.864Z,100688.60
2022-07-28T00:12:52.635Z,100688.87
2022-07-28T00:15:42.253Z,100692.98
2022-07-28T00:18:31.622Z,100694.92
2022-07-28T00:21:21.654Z,100699.55
2022-07-28T00:24:10.946Z,100702.10
2022-07-28T00:27:00.393Z,100701.69
2022-07-28T00:29:52.324Z,100706.00
2022-07-28T00:32:42.171Z,100698.71
2022-07-28T00:35:32.321Z,100700.39
2022-07-28T00:38:23.353Z,100701.15
2022-07-28T00:41:13.002Z,100707.60
2022-07-28T00:44:03.041Z,100708.27
2022-07-28T00:46:53.248Z,100708.67
2022-07-28T00:49:44.442Z,100705.66
2022-07-28T00:52:34.119Z,100706.09
2022-07-28T00:55:24.377Z,100711.85
2022-07-28T00:58:13.462Z,100717.98
2022-07-28T01:01:09.741Z,100722.84
2022-07-28T01:04:01.927Z,100718.64
2022-07-28T01:07:02.739Z,100718.83
2022-07-28T01:10:03.069Z,100719.67
2022-07-28T01:13:05.338Z,100717.28
2022-07-28T01:16:33.768Z,100718.64
2022-07-28T01:19:35.979Z,100720.02
2022-07-28T01:22:29.685Z,100723.92
2022-07-28T01:25:34.208Z,100726.09
2022-07-28T01:28:32.825Z,100726.70
2022-07-28T01:31:25.810Z,100722.58
2022-07-28T01:34:37.506Z,100723.64
2022-07-28T01:37:29.663Z,100719.23
2022-07-28T01:40:22.529Z,100720.10
2022-07-28T01:43:18.249Z,100718.58
2022-07-28T01:46:09.237Z,100720.45
2022-07-28T01:48:59.656Z,100718.36
2022-07-28T01:51:51.632Z,100717.91
2022-07-28T01:54:45.233Z,100720.47
2022-07-28T01:57:28.710Z,100720.20
2022-07-28T02:00:28.173Z,100722.70
2022-07-28T02:03:18.916Z,100724.67
2022-07-28T02:06:09.104Z,100721.42
2022-07-28T02:09:02.675Z,100722.05
2022-07-28T02:11:54.724Z,100723.29
2022-07-28T02:14:49.297Z,100726.38
2022-07-28T02:17:41.700Z,100726.17
2022-07-28T02:20:38.613Z,100728.11
2022-07-28T02:23:28.782Z,100724.14
2022-07-28T02:26:28.095Z,100722.83
2022-07-28T02:29:49.064Z,100726.53
2022-07-28T02:32:40.908Z,100727.27
2022-07-28T02:35:29.640Z,100729.53
2022-07-28T02:38:24.290Z,100729.85
2022-07-28T02:41:18.758Z,100725.52
2022-07-28T02:44:00.205Z,100724.85
2022-07-28T02:46:54.745Z,100726.66
2022-07-28T02:49:46.072Z,100728.14
2022-07-28T02:52:35.764Z,100732.21
2022-07-28T02:55:26.130Z,100734.20
2022-07-28T02:58:20.923Z,100733.73
2022-07-28T03:01:11.326Z,100736.28
2022-07-28T03:04:01.713Z,100737.63
2022-07-28T03:06:51.314Z,100738.75
2022-07-28T03:09:42.997Z,100740.29
2022-07-28T03:12:50.302Z,100745.48
2022-07-28T03:15:40.492Z,100747.77
2022-07-28T03:18:30.388Z,100752.28
2022-07-28T03:21:19.781Z,100750.73
2022-07-28T03:24:13.960Z,100753.88
2022-07-28T03:27:15.238Z,100757.08
2022-07-28T03:30:08.552Z,100766.27
2022-07-28T03:33:00.894Z,100766.36
2022-07-28T03:35:53.798Z,100762.79
2022-07-28T03:38:46.199Z,100764.73
2022-07-28T03:41:36.663Z,100765.70
2022-07-28T03:44:28.697Z,100767.09
2022-07-28T03:47:23.130Z,100767.75
2022-07-28T03:50:12.585Z,100769.72
2022-07-28T03:53:02.942Z,100779.29
2022-07-28T03:55:53.254Z,100783.58
2022-07-28T03:58:41.528Z,100787.85
2022-07-28T04:01:30.814Z,100787.34
2022-07-28T04:04:19.753Z,100789.14
2022-07-28T04:07:09.374Z,100788.81
2022-07-28T04:09:51.118Z,100794.08
2022-07-28T04:12:47.261Z,100797.16
2022-07-28T04:15:36.417Z,100802.47
2022-07-28T04:18:25.725Z,100802.42
2022-07-28T04:21:18.232Z,100801.82
2022-07-28T04:24:10.808Z,100801.55
2022-07-28T04:26:59.737Z,100803.63
2022-07-28T04:29:55.359Z,100805.45
2022-07-28T04:33:09.555Z,100813.55
2022-07-28T04:36:01.153Z,100814.62
2022-07-28T04:38:53.099Z,100813.17
2022-07-28T04:41:42.464Z,100811.39
2022-07-28T04:44:31.635Z,100813.21
2022-07-28T04:47:21.320Z,100810.45
2022-07-28T04:50:14.914Z,100808.17
2022-07-28T04:53:04.202Z,100803.98
2022-07-28T04:55:55.210Z,100803.17
2022-07-28T04:58:37.422Z,100804.21
2022-07-28T05:01:28.394Z,100807.17
2022-07-28T05:04:07.627Z,100805.80
2022-07-28T05:06:45.741Z,100806.83
2022-07-28T05:09:35.775Z,100810.94
2022-07-28T05:12:24.745Z,100811.16
2022-07-28T05:15:14.371Z,100810.50
2022-07-28T05:18:03.410Z,100810.46
2022-07-28T05:20:52.823Z,100811.21
2022-07-28T05:23:47.143Z,100814.98
2022-07-28T05:26:37.330Z,100811.87
2022-07-28T05:29:26.533Z,100814.31
2022-07-28T05:32:35.830Z,100817.77
2022-07-28T05:35:25.861Z,100817.56
2022-07-28T05:38:15.342Z,100817.39
2022-07-28T05:41:06.060Z,100816.25
2022-07-28T05:43:55.210Z,100817.23
2022-07-28T05:46:44.695Z,100812.02
2022-07-28T05:49:36.825Z,100812.79
2022-07-28T05:52:27.091Z,100815.64
2022-07-28T05:55:19.006Z,100820.75
2022-07-28T05:58:07.907Z,100827.80
2022-07-28T06:01:00.406Z,100830.45
2022-07-28T06:03:42.351Z,100827.23
2022-07-28T06:06:31.848Z,100831.26
2022-07-28T06:09:20.801Z,100831.70
2022-07-28T06:12:10.187Z,100832.88
2022-07-28T06:15:01.760Z,100836.18
2022-07-28T06:17:54.923Z,100834.15
2022-07-28T06:20:44.065Z,100833.97
2022-07-28T06:23:34.050Z,100832.73
2022-07-28T06:26:23.814Z,100841.09
2022-07-28T06:29:13.414Z,100839.41
2022-07-28T06:32:27.771Z,100842.73
2022-07-28T06:35:56.455Z,100845.23
2022-07-28T06:38:45.568Z,100847.52
2022-07-28T06:41:34.849Z,100844.31
2022-07-28T06:44:33.107Z,100838.58
2022-07-28T06:47:32.486Z,100844.88
2022-07-28T06:50:24.743Z,100848.37
2022-07-28T06:53:19.116Z,100848.95
2022-07-28T06:56:10.915Z,100848.45
2022-07-28T06:59:04.717Z,100851.98
2022-07-28T07:01:53.818Z,100857.33
2022-07-28T07:04:43.070Z,100855.20
2022-07-28T07:07:32.166Z,100857.20
2022-07-28T07:10:21.529Z,100852.38
2022-07-28T07:13:16.700Z,100850.20
2022-07-28T07:15:59.022Z,100854.95
2022-07-28T07:18:57.525Z,100853.58
2022-07-28T07:21:46.374Z,100854.16
2022-07-28T07:24:37.572Z,100858.60
2022-07-28T07:27:26.837Z,100856.98
2022-07-28T07:30:17.745Z,100859.67
2022-07-28T07:33:08.055Z,100856.53
2022-07-28T07:35:59.666Z,100861.61
2022-07-28T07:38:50.800Z,100859.61
2022-07-28T07:41:39.956Z,100859.61
2022-07-28T07:44:21.808Z,100860.20
2022-07-28T07:47:12.097Z,100860.63
2022-07-28T07:50:04.122Z,100859.76
2022-07-28T07:52:49.647Z,100857.98
2022-07-28T07:55:34.547Z,100864.50
2022-07-28T07:58:26.882Z,100862.09
2022-07-28T08:01:16.161Z,100867.58
2022-07-28T08:04:05.639Z,100864.75
2022-07-28T08:06:58.162Z,100864.75
2022-07-28T08:09:49.611Z,100870.90
2022-07-28T08:12:39.058Z,100870.90
2022-07-28T08:15:28.219Z,100873.35
2022-07-28T08:18:17.476Z,100869.98
2022-07-28T08:21:08.011Z,100872.03
2022-07-28T08:23:58.363Z,100871.48
2022-07-28T08:26:50.815Z,100865.41
2022-07-28T08:29:44.505Z,100866.61
2022-07-28T08:32:33.665Z,100868.14
2022-07-28T08:35:33.072Z,100871.61
2022-07-28T08:38:22.864Z,100867.09
2022-07-28T08:41:20.757Z,100867.39
2022-07-28T08:44:14.564Z,100868.50
2022-07-28T08:47:04.099Z,100868.94
2022-07-28T08:49:56.931Z,100866.42
2022-07-28T08:52:50.247Z,100871.26
2022-07-28T08:55:40.155Z,100876.25
2022-07-28T08:58:33.541Z,100872.41
2022-07-28T09:01:15.933Z,100871.85
2022-07-28T09:04:07.108Z,100868.84
2022-07-28T09:06:56.715Z,100870.52
2022-07-28T09:09:49.778Z,100871.56
2022-07-28T09:12:40.204Z,100874.75
2022-07-28T09:15:29.679Z,100872.69
2022-07-28T09:18:20.155Z,100875.07
2022-07-28T09:21:13.041Z,100874.81
2022-07-28T09:24:02.208Z,100872.66
2022-07-28T09:27:01.470Z,100878.19
2022-07-28T09:30:00.243Z,100874.52
2022-07-28T09:32:50.343Z,100877.70
2022-07-28T09:35:45.677Z,100874.27
2022-07-28T09:38:41.725Z,100871.91
2022-07-28T09:41:23.839Z,100874.71
2022-07-28T09:44:19.233Z,100875.16
2022-07-28T09:47:23.700Z,100872.09
2022-07-28T09:50:20.926Z,100872.89
2022-07-28T09:53:38.452Z,100873.74
2022-07-28T09:56:31.812Z,100869.27
2022-07-28T10:00:15.142Z,100867.11
2022-07-28T10:02:40.294Z,100870.35
2022-07-28T10:05:40.867Z,100867.08
2022-07-28T10:08:45.596Z,100872.86
2022-07-28T10:11:39.283Z,100873.46
2022-07-28T10:14:51.601Z,100869.55
2022-07-28T10:17:42.804Z,100866.94
2022-07-28T10:20:33.803Z,100869.83
2022-07-28T10:23:24.681Z,100863.95
2022-07-28T10:26:13.009Z,100863.10
2022-07-28T10:29:08.149Z,100860.86
2022-07-28T10:31:53.127Z,100862.70
2022-07-28T10:34:50.397Z,100853.73
2022-07-28T10:37:55.006Z,100857.85
2022-07-28T10:40:50.035Z,100857.73
2022-07-28T10:43:42.743Z,100855.73
2022-07-28T10:46:36.428Z,100854.94
2022-07-28T10:49:32.547Z,100856.42
2022-07-28T10:52:46.793Z,100854.23
2022-07-28T10:55:44.950Z,100858.41
2022-07-28T10:58:46.462Z,100863.80
2022-07-28T11:01:52.313Z,100858.13
2022-07-28T11:04:58.677Z,100860.23
2022-07-28T11:07:49.049Z,100857.69
2022-07-28T11:11:07.522Z,100856.13
2022-07-28T11:14:33.389Z,100856.83
2022-07-28T11:17:24.631Z,100851.83
2022-07-28T11:20:27.549Z,100853.52
2022-07-28T11:23:38.637Z,100848.78
2022-07-28T11:26:40.926Z,100844.67
2022-07-28T11:29:46.568Z,100844.44
2022-07-28T11:32:59.390Z,100843.70
2022-07-28T11:35:59.504Z,100840.66
2022-07-28T11:39:22.017Z,100843.35
2022-07-28T11:42:26.065Z,100839.98
2022-07-28T11:45:26.617Z,100836.69
2022-07-28T11:48:28.906Z,100834.30
2022-07-28T11:51:19.418Z,100830.35
2022-07-28T11:54:17.191Z,100833.27
2022-07-28T11:57:09.518Z,100832.89
2022-07-28T12:00:01.818Z,100828.21
2022-07-28T12:02:52.276Z,100819.53
2022-07-28T12:05:42.403Z,100817.98
2022-07-28T12:08:53.013Z,100817.92
2022-07-28T12:11:43.084Z,100813.42
2022-07-28T12:14:46.504Z,100811.88
2022-07-28T12:17:35.649Z,100814.79
2022-07-28T12:20:32.043Z,100817.27
2022-07-28T12:23:39.095Z,100819.84
2022-07-28T12:26:40.667Z,100819.42
2022-07-28T12:29:32.262Z,100822.77
2022-07-28T12:32:31.578Z,100817.27
2022-07-28T12:35:22.712Z,100812.11
2022-07-28T12:38:11.976Z,100811.16
2022-07-28T12:41:00.831Z,100808.04
2022-07-28T12:43:54.578Z,100807.95
2022-07-28T12:46:49.278Z,100804.80
2022-07-28T12:49:28.836Z,100801.38
2022-07-28T12:52:21.949Z,100802.70
2022-07-28T12:55:26.435Z,100804.76
2022-07-28T12:58:26.955Z,100807.95
2022-07-28T13:01:17.034Z,100806.19
2022-07-28T13:04:06.301Z,100808.46
2022-07-28T13:06:58.332Z,100813.81
2022-07-28T13:10:00.045Z,100807.84
2022-07-28T13:13:02.093Z,100809.50
2022-07-28T13:16:13.155Z,100809.06
2022-07-28T13:19:03.915Z,100813.37
2022-07-28T13:22:01.586Z,100812.96
2022-07-28T13:24:52.832Z,100813.09
2022-07-28T13:27:43.405Z,100809.14
2022-07-28T13:30:33.124Z,100806.30
2022-07-28T13:33:22.178Z,100809.26
2022-07-28T13:36:01.477Z,100809.13
2022-07-28T13:38:53.841Z,100806.00
2022-07-28T13:41:56.412Z,100807.21
2022-07-28T13:44:47.567Z,100804.01
2022-07-28T13:47:38.878Z,100802.20
2022-07-28T13:50:28.528Z,100803.06
2022-07-28T13:53:17.675Z,100807.37
2022-07-28T13:56:08.254Z,100806.06
2022-07-28T13:58:57.989Z,100802.86
2022-07-28T14:01:49.922Z,100799.96
2022-07-28T14:04:51.710Z,100805.09
2022-07-28T14:07:41.044Z,100811.16
2022-07-28T14:10:30.927Z,100813.17
2022-07-28T14:13:20.402Z,100813.19
2022-07-28T14:16:14.100Z,100807.41
2022-07-28T14:19:03.557Z,100804.98
2022-07-28T14:22:12.757Z,100809.91
2022-07-28T14:25:03.074Z,100809.42
2022-07-28T14:27:54.821Z,100811.83
2022-07-28T14:30:34.443Z,100814.15
2022-07-28T14:33:26.721Z,100816.77
2022-07-28T14:36:16.957Z,100819.49
2022-07-28T14:39:12.003Z,100816.71
2022-07-28T14:42:01.570Z,100818.60
2022-07-28T14:44:51.735Z,100818.33
2022-07-28T14:47:44.622Z,100817.95
2022-07-28T14:50:34.832Z,100819.89
2022-07-28T14:53:24.371Z,100818.77
2022-07-28T14:56:17.370Z,100821.80
2022-07-28T14:59:07.928Z,100818.23
2022-07-28T15:01:57.775Z,100820.30
2022-07-28T15:04:47.002Z,100817.13
2022-07-28T15:07:36.142Z,100815.12
2022-07-28T15:10:25.571Z,100813.51
2022-07-28T15:13:15.300Z,100810.13
2022-07-28T15:16:04.918Z,100810.59
2022-07-28T15:18:54.909Z,100815.59
2022-07-28T15:21:46.791Z,100818.93
2022-07-28T15:24:41.687Z,100819.14
2022-07-28T15:27:35.180Z,100812.81
2022-07-28T15:30:24.692Z,100814.34
2022-07-28T15:33:13.848Z,100811.11
2022-07-28T15:36:07.249Z,100811.67
2022-07-28T15:38:56.351Z,100811.56
2022-07-28T15:41:46.862Z,100812.54
2022-07-28T15:44:35.893Z,100811.52
2022-07-28T15:47:24.966Z,100810.67
2022-07-28T15:50:14.185Z,100809.40
2022-07-28T15:53:03.699Z,100810.86
2022-07-28T15:55:52.983Z,100808.29
2022-07-28T15:58:42.555Z,100807.61
2022-07-28T16:01:32.356Z,100807.45
2022-07-28T16:04:55.155Z,100806.14
2022-07-28T16:07:45.220Z,100810.46
2022-07-28T16:10:34.809Z,100809.77
2022-07-28T16:13:32.802Z,100809.42
2022-07-28T16:16:25.829Z,100811.41
2022-07-28T16:19:38.605Z,100810.66
2022-07-28T16:22:24.814Z,100810.16
2022-07-28T16:25:16.371Z,100812.89
2022-07-28T16:28:06.416Z,100813.41
2022-07-28T16:30:55.732Z,100815.45
2022-07-28T16:33:45.545Z,100812.73
2022-07-28T16:36:34.546Z,100810.03
2022-07-28T16:39:18.656Z,100805.38
2022-07-28T16:42:09.376Z,100800.19
2022-07-28T16:44:58.557Z,100806.67
2022-07-28T16:47:48.835Z,100805.04
2022-07-28T16:50:28.520Z,100800.88
2022-07-28T16:53:42.279Z,100802.64
2022-07-28T16:56:24.028Z,100800.13
2022-07-28T16:59:13.334Z,100803.68
2022-07-28T17:02:02.717Z,100801.67
2022-07-28T17:04:52.391Z,100800.05
2022-07-28T17:07:45.977Z,100801.40
2022-07-28T17:10:35.798Z,100800.69
2022-07-28T17:13:25.129Z,100806.87
2022-07-28T17:16:14.608Z,100812.64
2022-07-28T17:19:04.240Z,100810.51
2022-07-28T17:21:53.256Z,100816.63
2022-07-28T17:24:45.105Z,100819.30
2022-07-28T17:27:38.242Z,100817.83
2022-07-28T17:30:29.836Z,100816.69
2022-07-28T17:33:19.598Z,100818.05
2022-07-28T17:36:08.842Z,100821.02
2022-07-28T17:38:57.663Z,100823.30
2022-07-28T17:41:46.319Z,100822.56
2022-07-28T17:44:35.631Z,100827.02
2022-07-28T17:47:36.348Z,100826.84
2022-07-28T17:50:54.416Z,100830.56
2022-07-28T17:53:43.738Z,100831.29
2022-07-28T17:56:30.731Z,100831.36
2022-07-28T17:59:20.478Z,100837.37
2022-07-28T18:02:12.801Z,100838.52
2022-07-28T18:05:01.707Z,100837.54
2022-07-28T18:07:54.793Z,100837.08
2022-07-28T18:10:49.896Z,100844.48
2022-07-28T18:13:43.589Z,100844.30
2022-07-28T18:16:49.641Z,100843.27
2022-07-28T18:19:44.977Z,100842.66
2022-07-28T18:22:34.360Z,100845.48
2022-07-28T18:25:24.497Z,100846.05
2022-07-28T18:28:16.539Z,100845.98
2022-07-28T18:31:05.725Z,100843.08
2022-07-28T18:33:55.070Z,100847.99
2022-07-28T18:36:44.140Z,100849.49
2022-07-28T18:39:35.848Z,100855.19
2022-07-28T18:42:26.926Z,100857.59
2022-07-28T18:45:18.560Z,100863.25
2022-07-28T18:48:10.920Z,100864.02
2022-07-28T18:51:00.670Z,100867.53
2022-07-28T18:53:52.117Z,100867.02
2022-07-28T18:56:40.954Z,100866.44
2022-07-28T18:59:32.011Z,100865.09
2022-07-28T19:02:20.914Z,100867.32
2022-07-28T19:05:09.680Z,100872.55
2022-07-28T19:07:59.386Z,100875.39
2022-07-28T19:10:52.027Z,100877.28
2022-07-28T19:13:41.442Z,100876.28
2022-07-28T19:16:31.071Z,100873.52
2022-07-28T19:19:20.786Z,100878.84
2022-07-28T19:22:10.243Z,100881.07
2022-07-28T19:24:59.969Z,100883.19
2022-07-28T19:27:54.012Z,100880.90
2022-07-28T19:30:44.444Z,100879.23
2022-07-28T19:33:33.481Z,100880.23
2022-07-28T19:36:25.813Z,100876.81
2022-07-28T19:39:14.648Z,100883.54
2022-07-28T19:42:08.407Z,100884.81
2022-07-28T19:44:58.401Z,100883.91
2022-07-28T19:47:49.683Z,100884.66
2022-07-28T19:50:40.576Z,100887.40
2022-07-28T19:53:32.310Z,100887.48
2022-07-28T19:56:25.533Z,100886.27
2022-07-28T19:59:19.723Z,100884.94
2022-07-28T20:02:13.691Z,100886.59
2022-07-28T20:05:02.847Z,100886.91
2022-07-28T20:08:08.666Z,100886.81
2022-07-28T20:10:58.313Z,100886.63
2022-07-28T20:13:49.556Z,100885.00
2022-07-28T20:16:39.336Z,100888.08
2022-07-28T20:19:28.180Z,100887.67
2022-07-28T20:22:19.852Z,100896.10
2022-07-28T20:25:12.547Z,100901.92
2022-07-28T20:28:02.386Z,100905.17
2022-07-28T20:30:52.586Z,100905.86
2022-07-28T20:33:41.813Z,100909.31
2022-07-28T20:36:31.569Z,100908.02
2022-07-28T20:39:43.793Z,100904.50
2022-07-28T20:42:29.672Z,100904.86
2022-07-28T20:45:18.900Z,100903.52
2022-07-28T20:48:08.101Z,100904.26
2022-07-28T20:51:04.098Z,100907.63
2022-07-28T20:53:54.346Z,100914.77
2022-07-28T20:56:44.013Z,100916.54
2022-07-28T20:59:32.873Z,100914.83
2022-07-28T21:02:23.952Z,100918.29
2022-07-28T21:05:18.241Z,100918.89
2022-07-28T21:08:41.283Z,100924.11
2022-07-28T21:11:35.015Z,100923.53
2022-07-28T21:14:24.958Z,100930.56
2022-07-28T21:17:13.937Z,100937.35
2022-07-28T21:20:02.154Z,100938.59
2022-07-28T21:22:53.295Z,100941.45
2022-07-28T21:25:45.183Z,100945.88
2022-07-28T21:28:52.504Z,100949.21
2022-07-28T21:32:03.733Z,100955.27
2022-07-28T21:34:56.550Z,100955.38
2022-07-28T21:37:45.868Z,100954.13
2022-07-28T21:40:37.927Z,100956.98
2022-07-28T21:43:27.700Z,100958.19
2022-07-28T21:46:26.268Z,100958.77
2022-07-28T21:49:16.389Z,100960.10
2022-07-28T21:52:07.094Z,100962.70
2022-07-28T21:54:56.418Z,100962.77
2022-07-28T21:57:45.570Z,100964.30
2022-07-28T22:00:34.950Z,100966.10
2022-07-28T22:03:23.975Z,100968.83
2022-07-28T22:06:13.846Z,100976.15
2022-07-28T22:09:03.544Z,100980.85
2022-07-28T22:19:39.663Z,100980.46
2022-07-28T22:22:28.798Z,100978.42
2022-07-28T22:25:18.953Z,100976.54
2022-07-28T22:28:09.031Z,100976.63
2022-07-28T22:31:09.626Z,100977.78
2022-07-28T22:33:59.807Z,100982.72
2022-07-28T22:36:50.331Z,100984.40
2022-07-28T22:39:42.822Z,100985.33
2022-07-28T22:42:24.989Z,100986.36
2022-07-28T22:45:16.477Z,100988.61
2022-07-28T22:48:25.846Z,100999.33
2022-07-28T22:51:16.253Z,101008.11
2022-07-28T22:54:12.295Z,101007.75
2022-07-28T22:57:01.650Z,101008.41
2022-07-28T22:59:54.026Z,101006.23
2022-07-28T23:02:43.197Z,101006.71
2022-07-28T23:05:33.037Z,101007.98
2022-07-28T23:08:22.583Z,101009.21
2022-07-28T23:11:22.920Z,101011.96
2022-07-28T23:14:12.014Z,101014.33
2022-07-28T23:17:02.782Z,101014.17
2022-07-28T23:19:57.501Z,101016.41
2022-07-28T23:22:47.088Z,101015.78
2022-07-28T23:25:39.957Z,101019.39
2022-07-28T23:28:29.677Z,101023.66
2022-07-28T23:31:20.103Z,101023.55
2022-07-28T23:34:09.714Z,101018.43
2022-07-28T23:36:58.898Z,101019.06
2022-07-28T23:39:50.743Z,101020.36
2022-07-28T23:42:41.264Z,101022.91
2022-07-28T23:45:30.749Z,101024.42
2022-07-28T23:48:20.046Z,101019.92
2022-07-28T23:51:10.386Z,101024.98
2022-07-28T23:53:59.760Z,101025.50
2022-07-28T23:56:56.221Z,101028.16
2022-07-28T23:59:48.210Z,101027.36
